sensor_id;sensor_type;location;lat;lon;timestamp;P1;durP1;ratioP1;P2;durP2;ratioP2
20320;SDS011;10318;47.674;9.052;2022-09-29T00:00:46;0.73;;;0.30;;
20320;SDS011;10318;47.674;9.052;2022-09-29T00:03:13;0.30;;;0.30;;
20320;SDS011;10318;47.674;9.052;2022-09-29T00:05:45;1.05;;;0.45;;
20320;SDS011;10318;47.674;9.052;2022-09-29T00:08:12;2.83;;;0.40;;
20320;SDS011;10318;47.674;9.052;2022-09-29T00:10:39;1.27;;;0.68;;
20320;SDS011;10318;47.674;9.052;2022-09-29T00:13:05;0.40;;;0.40;;
20320;SDS011;10318;47.674;9.052;2022-09-29T00:15:32;0.80;;;0.52;;
20320;SDS011;10318;47.674;9.052;2022-09-29T00:17:59;2.67;;;0.60;;
20320;SDS011;10318;47.674;9.052;2022-09-29T00:20:39;0.57;;;0.50;;
20320;SDS011;10318;47.674;9.052;2022-09-29T00:23:06;0.98;;;0.52;;
20320;SDS011;10318;47.674;9.052;2022-09-29T00:25:33;1.35;;;0.57;;
20320;SDS011;10318;47.674;9.052;2022-09-29T00:27:59;0.45;;;0.40;;
20320;SDS011;10318;47.674;9.052;2022-09-29T00:30:26;3.17;;;0.73;;
20320;SDS011;10318;47.674;9.052;2022-09-29T00:32:53;0.30;;;0.30;;
20320;SDS011;10318;47.674;9.052;2022-09-29T00:35:19;0.30;;;0.30;;
20320;SDS011;10318;47.674;9.052;2022-09-29T00:37:46;0.60;;;0.40;;
20320;SDS011;10318;47.674;9.052;2022-09-29T00:40:13;0.30;;;0.30;;
20320;SDS011;10318;47.674;9.052;2022-09-29T00:42:39;1.05;;;0.50;;
20320;SDS011;10318;47.674;9.052;2022-09-29T00:47:42;0.75;;;0.45;;
20320;SDS011;10318;47.674;9.052;2022-09-29T00:50:17;0.52;;;0.30;;
20320;SDS011;10318;47.674;9.052;2022-09-29T00:53:03;0.65;;;0.50;;
20320;SDS011;10318;47.674;9.052;2022-09-29T00:55:38;1.73;;;0.32;;
20320;SDS011;10318;47.674;9.052;2022-09-29T00:58:10;0.60;;;0.30;;
20320;SDS011;10318;47.674;9.052;2022-09-29T01:00:41;0.32;;;0.28;;
20320;SDS011;10318;47.674;9.052;2022-09-29T01:03:11;1.20;;;0.40;;
20320;SDS011;10318;47.674;9.052;2022-09-29T01:05:39;0.60;;;0.50;;
20320;SDS011;10318;47.674;9.052;2022-09-29T01:08:10;0.85;;;0.47;;
20320;SDS011;10318;47.674;9.052;2022-09-29T01:10:38;0.85;;;0.43;;
20320;SDS011;10318;47.674;9.052;2022-09-29T01:13:05;1.90;;;0.60;;
20320;SDS011;10318;47.674;9.052;2022-09-29T01:15:32;2.85;;;0.50;;
20320;SDS011;10318;47.674;9.052;2022-09-29T01:17:59;2.65;;;0.40;;
20320;SDS011;10318;47.674;9.052;2022-09-29T01:20:26;0.30;;;0.30;;
20320;SDS011;10318;47.674;9.052;2022-09-29T01:23:07;0.43;;;0.30;;
20320;SDS011;10318;47.674;9.052;2022-09-29T01:33:29;0.50;;;0.35;;
20320;SDS011;10318;47.674;9.052;2022-09-29T01:36:07;0.52;;;0.30;;
20320;SDS011;10318;47.674;9.052;2022-09-29T01:41:35;0.65;;;0.30;;
20320;SDS011;10318;47.674;9.052;2022-09-29T01:44:03;0.30;;;0.30;;
20320;SDS011;10318;47.674;9.052;2022-09-29T01:49:01;1.15;;;0.38;;
20320;SDS011;10318;47.674;9.052;2022-09-29T01:51:30;0.63;;;0.40;;
20320;SDS011;10318;47.674;9.052;2022-09-29T01:53:59;0.35;;;0.35;;
20320;SDS011;10318;47.674;9.052;2022-09-29T01:56:37;2.78;;;0.60;;
20320;SDS011;10318;47.674;9.052;2022-09-29T01:59:14;0.47;;;0.38;;
20320;SDS011;10318;47.674;9.052;2022-09-29T02:01:42;0.60;;;0.30;;
20320;SDS011;10318;47.674;9.052;2022-09-29T02:04:12;1.48;;;0.30;;
20320;SDS011;10318;47.674;9.052;2022-09-29T02:06:45;0.30;;;0.30;;
20320;SDS011;10318;47.674;9.052;2022-09-29T02:09:18;1.20;;;0.50;;
20320;SDS011;10318;47.674;9.052;2022-09-29T02:11:46;0.52;;;0.40;;
20320;SDS011;10318;47.674;9.052;2022-09-29T02:14:17;1.08;;;0.60;;
20320;SDS011;10318;47.674;9.052;2022-09-29T02:16:54;0.32;;;0.32;;
20320;SDS011;10318;47.674;9.052;2022-09-29T02:19:27;4.78;;;0.80;;
20320;SDS011;10318;47.674;9.052;2022-09-29T02:21:55;2.15;;;0.60;;
20320;SDS011;10318;47.674;9.052;2022-09-29T02:24:21;0.55;;;0.47;;
20320;SDS011;10318;47.674;9.052;2022-09-29T02:26:49;1.48;;;0.40;;
20320;SDS011;10318;47.674;9.052;2022-09-29T02:29:16;0.50;;;0.30;;
20320;SDS011;10318;47.674;9.052;2022-09-29T02:31:44;1.25;;;0.52;;
20320;SDS011;10318;47.674;9.052;2022-09-29T02:34:13;0.40;;;0.30;;
20320;SDS011;10318;47.674;9.052;2022-09-29T02:44:31;1.00;;;0.40;;
20320;SDS011;10318;47.674;9.052;2022-09-29T02:55:08;0.75;;;0.40;;
20320;SDS011;10318;47.674;9.052;2022-09-29T03:02:38;2.28;;;0.65;;
20320;SDS011;10318;47.674;9.052;2022-09-29T03:05:05;1.92;;;0.52;;
20320;SDS011;10318;47.674;9.052;2022-09-29T03:07:33;1.45;;;0.63;;
20320;SDS011;10318;47.674;9.052;2022-09-29T03:10:00;0.40;;;0.40;;
20320;SDS011;10318;47.674;9.052;2022-09-29T03:12:27;0.47;;;0.47;;
20320;SDS011;10318;47.674;9.052;2022-09-29T03:14:54;1.77;;;0.50;;
20320;SDS011;10318;47.674;9.052;2022-09-29T03:17:20;0.30;;;0.30;;
20320;SDS011;10318;47.674;9.052;2022-09-29T03:19:47;0.32;;;0.32;;
20320;SDS011;10318;47.674;9.052;2022-09-29T03:22:13;1.10;;;0.50;;
20320;SDS011;10318;47.674;9.052;2022-09-29T03:24:40;0.40;;;0.32;;
20320;SDS011;10318;47.674;9.052;2022-09-29T03:27:07;0.65;;;0.55;;
20320;SDS011;10318;47.674;9.052;2022-09-29T03:29:36;0.40;;;0.40;;
20320;SDS011;10318;47.674;9.052;2022-09-29T03:32:03;0.95;;;0.50;;
20320;SDS011;10318;47.674;9.052;2022-09-29T03:34:31;1.52;;;0.50;;
20320;SDS011;10318;47.674;9.052;2022-09-29T03:36:58;0.45;;;0.45;;
20320;SDS011;10318;47.674;9.052;2022-09-29T03:39:24;2.60;;;0.55;;
20320;SDS011;10318;47.674;9.052;2022-09-29T03:41:51;0.50;;;0.40;;
20320;SDS011;10318;47.674;9.052;2022-09-29T03:44:18;2.95;;;0.52;;
20320;SDS011;10318;47.674;9.052;2022-09-29T03:46:45;1.10;;;0.50;;
20320;SDS011;10318;47.674;9.052;2022-09-29T03:49:13;1.70;;;0.57;;
20320;SDS011;10318;47.674;9.052;2022-09-29T03:51:41;1.00;;;0.60;;
20320;SDS011;10318;47.674;9.052;2022-09-29T03:54:08;1.65;;;0.50;;
20320;SDS011;10318;47.674;9.052;2022-09-29T03:56:35;0.77;;;0.60;;
20320;SDS011;10318;47.674;9.052;2022-09-29T03:59:02;0.65;;;0.50;;
20320;SDS011;10318;47.674;9.052;2022-09-29T04:01:30;0.90;;;0.50;;
20320;SDS011;10318;47.674;9.052;2022-09-29T04:03:57;0.60;;;0.40;;
20320;SDS011;10318;47.674;9.052;2022-09-29T04:06:24;0.80;;;0.45;;
20320;SDS011;10318;47.674;9.052;2022-09-29T04:08:50;0.60;;;0.50;;
20320;SDS011;10318;47.674;9.052;2022-09-29T04:11:17;0.50;;;0.50;;
20320;SDS011;10318;47.674;9.052;2022-09-29T04:13:44;2.08;;;0.57;;
20320;SDS011;10318;47.674;9.052;2022-09-29T04:16:10;0.40;;;0.40;;
20320;SDS011;10318;47.674;9.052;2022-09-29T04:18:37;0.77;;;0.60;;
20320;SDS011;10318;47.674;9.052;2022-09-29T04:21:04;0.45;;;0.40;;
20320;SDS011;10318;47.674;9.052;2022-09-29T04:23:31;1.48;;;0.60;;
20320;SDS011;10318;47.674;9.052;2022-09-29T04:25:58;1.30;;;0.70;;
20320;SDS011;10318;47.674;9.052;2022-09-29T04:28:27;1.08;;;0.57;;
20320;SDS011;10318;47.674;9.052;2022-09-29T04:30:54;2.63;;;0.93;;
20320;SDS011;10318;47.674;9.052;2022-09-29T04:33:21;2.17;;;0.65;;
20320;SDS011;10318;47.674;9.052;2022-09-29T04:35:48;0.70;;;0.70;;
20320;SDS011;10318;47.674;9.052;2022-09-29T04:38:14;1.58;;;0.70;;
20320;SDS011;10318;47.674;9.052;2022-09-29T04:40:41;4.05;;;0.70;;
20320;SDS011;10318;47.674;9.052;2022-09-29T04:43:08;0.95;;;0.68;;
20320;SDS011;10318;47.674;9.052;2022-09-29T04:45:35;0.98;;;0.70;;
20320;SDS011;10318;47.674;9.052;2022-09-29T04:48:01;2.28;;;0.80;;
20320;SDS011;10318;47.674;9.052;2022-09-29T04:50:28;0.70;;;0.70;;
20320;SDS011;10318;47.674;9.052;2022-09-29T04:52:55;2.13;;;1.13;;
20320;SDS011;10318;47.674;9.052;2022-09-29T04:55:21;2.00;;;1.10;;
20320;SDS011;10318;47.674;9.052;2022-09-29T04:57:48;1.73;;;0.93;;
20320;SDS011;10318;47.674;9.052;2022-09-29T05:00:15;4.28;;;0.77;;
20320;SDS011;10318;47.674;9.052;2022-09-29T05:02:41;2.88;;;1.00;;
20320;SDS011;10318;47.674;9.052;2022-09-29T05:05:14;2.85;;;1.00;;
20320;SDS011;10318;47.674;9.052;2022-09-29T05:07:40;1.20;;;1.10;;
20320;SDS011;10318;47.674;9.052;2022-09-29T05:10:07;3.70;;;0.80;;
20320;SDS011;10318;47.674;9.052;2022-09-29T05:12:34;1.35;;;1.15;;
20320;SDS011;10318;47.674;9.052;2022-09-29T05:15:01;1.98;;;1.38;;
20320;SDS011;10318;47.674;9.052;2022-09-29T05:17:29;5.32;;;1.15;;
20320;SDS011;10318;47.674;9.052;2022-09-29T05:19:56;2.55;;;1.45;;
20320;SDS011;10318;47.674;9.052;2022-09-29T05:22:23;2.30;;;1.17;;
20320;SDS011;10318;47.674;9.052;2022-09-29T05:24:51;2.20;;;1.00;;
20320;SDS011;10318;47.674;9.052;2022-09-29T05:27:18;2.72;;;1.40;;
20320;SDS011;10318;47.674;9.052;2022-09-29T05:29:44;2.63;;;1.20;;
20320;SDS011;10318;47.674;9.052;2022-09-29T05:32:11;2.50;;;1.38;;
20320;SDS011;10318;47.674;9.052;2022-09-29T05:34:38;4.70;;;1.40;;
20320;SDS011;10318;47.674;9.052;2022-09-29T05:37:05;7.30;;;1.88;;
20320;SDS011;10318;47.674;9.052;2022-09-29T05:39:31;1.95;;;1.40;;
20320;SDS011;10318;47.674;9.052;2022-09-29T05:42:00;4.07;;;1.33;;
20320;SDS011;10318;47.674;9.052;2022-09-29T05:44:28;2.90;;;1.58;;
20320;SDS011;10318;47.674;9.052;2022-09-29T05:46:54;5.13;;;1.65;;
20320;SDS011;10318;47.674;9.052;2022-09-29T05:49:21;3.65;;;1.58;;
20320;SDS011;10318;47.674;9.052;2022-09-29T05:51:48;2.92;;;1.40;;
20320;SDS011;10318;47.674;9.052;2022-09-29T05:54:15;1.73;;;1.45;;
20320;SDS011;10318;47.674;9.052;2022-09-29T05:56:42;3.28;;;1.52;;
20320;SDS011;10318;47.674;9.052;2022-09-29T05:59:10;2.05;;;1.58;;
20320;SDS011;10318;47.674;9.052;2022-09-29T06:01:37;1.40;;;1.30;;
20320;SDS011;10318;47.674;9.052;2022-09-29T06:04:04;2.20;;;1.20;;
20320;SDS011;10318;47.674;9.052;2022-09-29T06:06:31;1.23;;;1.10;;
20320;SDS011;10318;47.674;9.052;2022-09-29T06:08:57;1.42;;;1.33;;
20320;SDS011;10318;47.674;9.052;2022-09-29T06:11:28;1.90;;;1.20;;
20320;SDS011;10318;47.674;9.052;2022-09-29T06:13:57;1.10;;;1.00;;
20320;SDS011;10318;47.674;9.052;2022-09-29T06:16:26;1.38;;;1.25;;
20320;SDS011;10318;47.674;9.052;2022-09-29T06:18:53;1.63;;;1.10;;
20320;SDS011;10318;47.674;9.052;2022-09-29T06:21:21;2.53;;;1.15;;
20320;SDS011;10318;47.674;9.052;2022-09-29T06:23:49;1.10;;;1.00;;
20320;SDS011;10318;47.674;9.052;2022-09-29T06:26:17;2.83;;;1.65;;
20320;SDS011;10318;47.674;9.052;2022-09-29T06:28:49;4.55;;;1.00;;
20320;SDS011;10318;47.674;9.052;2022-09-29T06:31:17;2.30;;;1.17;;
20320;SDS011;10318;47.674;9.052;2022-09-29T06:33:44;1.30;;;1.20;;
20320;SDS011;10318;47.674;9.052;2022-09-29T06:36:30;1.38;;;1.23;;
20320;SDS011;10318;47.674;9.052;2022-09-29T06:39:16;1.20;;;1.10;;
20320;SDS011;10318;47.674;9.052;2022-09-29T06:41:43;1.00;;;0.90;;
20320;SDS011;10318;47.674;9.052;2022-09-29T06:44:14;1.55;;;1.00;;
20320;SDS011;10318;47.674;9.052;2022-09-29T06:46:41;1.13;;;1.02;;
20320;SDS011;10318;47.674;9.052;2022-09-29T06:49:10;3.45;;;1.05;;
20320;SDS011;10318;47.674;9.052;2022-09-29T06:51:37;1.73;;;0.90;;
20320;SDS011;10318;47.674;9.052;2022-09-29T06:54:14;1.42;;;1.02;;
20320;SDS011;10318;47.674;9.052;2022-09-29T06:56:41;1.48;;;1.25;;
20320;SDS011;10318;47.674;9.052;2022-09-29T06:59:08;1.00;;;0.90;;
20320;SDS011;10318;47.674;9.052;2022-09-29T07:01:35;1.17;;;0.90;;
20320;SDS011;10318;47.674;9.052;2022-09-29T07:04:01;2.08;;;1.40;;
20320;SDS011;10318;47.674;9.052;2022-09-29T07:06:28;1.85;;;1.40;;
20320;SDS011;10318;47.674;9.052;2022-09-29T07:08:55;1.10;;;1.00;;
20320;SDS011;10318;47.674;9.052;2022-09-29T07:11:22;1.85;;;1.10;;
20320;SDS011;10318;47.674;9.052;2022-09-29T07:13:49;2.65;;;1.65;;
20320;SDS011;10318;47.674;9.052;2022-09-29T07:16:20;1.73;;;0.98;;
20320;SDS011;10318;47.674;9.052;2022-09-29T07:18:49;1.00;;;0.90;;
20320;SDS011;10318;47.674;9.052;2022-09-29T07:21:17;1.00;;;0.65;;
20320;SDS011;10318;47.674;9.052;2022-09-29T07:23:44;1.00;;;0.70;;
20320;SDS011;10318;47.674;9.052;2022-09-29T07:26:13;1.92;;;0.95;;
20320;SDS011;10318;47.674;9.052;2022-09-29T07:28:40;1.05;;;0.95;;
20320;SDS011;10318;47.674;9.052;2022-09-29T07:31:11;1.00;;;0.90;;
20320;SDS011;10318;47.674;9.052;2022-09-29T07:33:43;1.30;;;0.73;;
20320;SDS011;10318;47.674;9.052;2022-09-29T07:36:11;1.45;;;0.88;;
20320;SDS011;10318;47.674;9.052;2022-09-29T07:38:38;1.08;;;0.90;;
20320;SDS011;10318;47.674;9.052;2022-09-29T07:41:05;1.75;;;0.93;;
20320;SDS011;10318;47.674;9.052;2022-09-29T07:43:32;1.67;;;0.90;;
20320;SDS011;10318;47.674;9.052;2022-09-29T07:45:59;0.77;;;0.60;;
20320;SDS011;10318;47.674;9.052;2022-09-29T07:48:26;1.42;;;0.65;;
20320;SDS011;10318;47.674;9.052;2022-09-29T07:53:28;1.50;;;0.70;;
20320;SDS011;10318;47.674;9.052;2022-09-29T07:55:55;1.10;;;0.60;;
20320;SDS011;10318;47.674;9.052;2022-09-29T07:58:21;0.70;;;0.55;;
20320;SDS011;10318;47.674;9.052;2022-09-29T08:00:54;1.33;;;0.77;;
20320;SDS011;10318;47.674;9.052;2022-09-29T08:03:21;1.48;;;0.85;;
20320;SDS011;10318;47.674;9.052;2022-09-29T08:05:48;0.80;;;0.68;;
20320;SDS011;10318;47.674;9.052;2022-09-29T08:08:15;1.55;;;0.63;;
20320;SDS011;10318;47.674;9.052;2022-09-29T08:10:42;0.60;;;0.60;;
20320;SDS011;10318;47.674;9.052;2022-09-29T08:13:18;0.98;;;0.60;;
20320;SDS011;10318;47.674;9.052;2022-09-29T08:15:45;0.90;;;0.60;;
20320;SDS011;10318;47.674;9.052;2022-09-29T08:18:12;1.50;;;0.70;;
20320;SDS011;10318;47.674;9.052;2022-09-29T08:20:38;1.40;;;0.90;;
20320;SDS011;10318;47.674;9.052;2022-09-29T08:23:05;1.38;;;0.80;;
20320;SDS011;10318;47.674;9.052;2022-09-29T08:25:32;1.70;;;1.00;;
20320;SDS011;10318;47.674;9.052;2022-09-29T08:28:00;1.10;;;0.77;;
20320;SDS011;10318;47.674;9.052;2022-09-29T08:30:27;0.98;;;0.80;;
20320;SDS011;10318;47.674;9.052;2022-09-29T08:32:54;2.08;;;0.82;;
20320;SDS011;10318;47.674;9.052;2022-09-29T08:35:21;0.68;;;0.68;;
20320;SDS011;10318;47.674;9.052;2022-09-29T08:37:47;1.33;;;1.02;;
20320;SDS011;10318;47.674;9.052;2022-09-29T08:40:14;1.25;;;0.80;;
20320;SDS011;10318;47.674;9.052;2022-09-29T08:45:17;0.73;;;0.65;;
20320;SDS011;10318;47.674;9.052;2022-09-29T08:47:50;2.55;;;0.90;;
20320;SDS011;10318;47.674;9.052;2022-09-29T08:50:39;1.13;;;0.82;;
20320;SDS011;10318;47.674;9.052;2022-09-29T08:53:12;1.35;;;0.90;;
20320;SDS011;10318;47.674;9.052;2022-09-29T08:58:20;1.63;;;0.70;;
20320;SDS011;10318;47.674;9.052;2022-09-29T09:06:10;1.90;;;0.90;;
20320;SDS011;10318;47.674;9.052;2022-09-29T09:08:58;2.25;;;0.90;;
20320;SDS011;10318;47.674;9.052;2022-09-29T09:14:30;1.30;;;0.82;;
20320;SDS011;10318;47.674;9.052;2022-09-29T09:27:45;2.78;;;1.00;;
20320;SDS011;10318;47.674;9.052;2022-09-29T09:30:15;1.88;;;1.02;;
20320;SDS011;10318;47.674;9.052;2022-09-29T09:32:49;2.50;;;1.33;;
20320;SDS011;10318;47.674;9.052;2022-09-29T09:35:30;1.67;;;1.10;;
20320;SDS011;10318;47.674;9.052;2022-09-29T09:37:59;1.35;;;1.00;;
20320;SDS011;10318;47.674;9.052;2022-09-29T09:40:28;0.93;;;0.80;;
20320;SDS011;10318;47.674;9.052;2022-09-29T09:42:59;2.97;;;1.20;;
20320;SDS011;10318;47.674;9.052;2022-09-29T09:48:00;4.20;;;0.90;;
20320;SDS011;10318;47.674;9.052;2022-09-29T09:50:29;0.95;;;0.90;;
20320;SDS011;10318;47.674;9.052;2022-09-29T09:52:57;1.48;;;0.80;;
20320;SDS011;10318;47.674;9.052;2022-09-29T09:55:26;1.52;;;1.02;;
20320;SDS011;10318;47.674;9.052;2022-09-29T09:57:59;2.47;;;1.10;;
20320;SDS011;10318;47.674;9.052;2022-09-29T10:00:43;2.65;;;0.90;;
20320;SDS011;10318;47.674;9.052;2022-09-29T10:03:11;1.52;;;0.95;;
20320;SDS011;10318;47.674;9.052;2022-09-29T10:05:41;4.05;;;1.00;;
20320;SDS011;10318;47.674;9.052;2022-09-29T10:10:41;4.88;;;1.00;;
20320;SDS011;10318;47.674;9.052;2022-09-29T10:13:23;2.15;;;1.00;;
20320;SDS011;10318;47.674;9.052;2022-09-29T10:18:54;2.53;;;0.90;;
20320;SDS011;10318;47.674;9.052;2022-09-29T10:23:53;2.05;;;1.02;;
20320;SDS011;10318;47.674;9.052;2022-09-29T10:26:22;2.17;;;1.05;;
20320;SDS011;10318;47.674;9.052;2022-09-29T10:28:55;2.25;;;1.00;;
20320;SDS011;10318;47.674;9.052;2022-09-29T10:31:30;1.73;;;0.90;;
20320;SDS011;10318;47.674;9.052;2022-09-29T10:33:59;2.60;;;1.20;;
20320;SDS011;10318;47.674;9.052;2022-09-29T10:36:31;1.42;;;0.93;;
20320;SDS011;10318;47.674;9.052;2022-09-29T10:38:58;1.42;;;0.95;;
20320;SDS011;10318;47.674;9.052;2022-09-29T10:41:29;2.13;;;1.00;;
20320;SDS011;10318;47.674;9.052;2022-09-29T10:43:57;1.60;;;1.10;;
20320;SDS011;10318;47.674;9.052;2022-09-29T10:46:55;2.30;;;1.70;;
20320;SDS011;10318;47.674;9.052;2022-09-29T10:49:22;2.55;;;1.08;;
20320;SDS011;10318;47.674;9.052;2022-09-29T10:52:03;1.58;;;1.00;;
20320;SDS011;10318;47.674;9.052;2022-09-29T10:54:34;2.13;;;1.10;;
20320;SDS011;10318;47.674;9.052;2022-09-29T10:57:14;2.28;;;1.02;;
20320;SDS011;10318;47.674;9.052;2022-09-29T10:59:48;2.67;;;1.17;;
20320;SDS011;10318;47.674;9.052;2022-09-29T11:02:19;1.85;;;0.95;;
20320;SDS011;10318;47.674;9.052;2022-09-29T11:04:48;2.08;;;1.00;;
20320;SDS011;10318;47.674;9.052;2022-09-29T11:07:15;2.72;;;1.20;;
20320;SDS011;10318;47.674;9.052;2022-09-29T11:09:44;1.38;;;0.80;;
20320;SDS011;10318;47.674;9.052;2022-09-29T11:14:53;3.33;;;0.77;;
20320;SDS011;10318;47.674;9.052;2022-09-29T11:17:21;3.50;;;1.17;;
20320;SDS011;10318;47.674;9.052;2022-09-29T11:19:56;1.55;;;0.80;;
20320;SDS011;10318;47.674;9.052;2022-09-29T11:22:31;1.02;;;0.60;;
20320;SDS011;10318;47.674;9.052;2022-09-29T11:32:55;0.68;;;0.50;;
20320;SDS011;10318;47.674;9.052;2022-09-29T11:35:49;0.95;;;0.60;;
20320;SDS011;10318;47.674;9.052;2022-09-29T11:43:55;1.52;;;0.75;;
20320;SDS011;10318;47.674;9.052;2022-09-29T11:49:17;0.80;;;0.70;;
20320;SDS011;10318;47.674;9.052;2022-09-29T11:56:54;2.65;;;0.80;;
20320;SDS011;10318;47.674;9.052;2022-09-29T12:02:10;0.90;;;0.77;;
20320;SDS011;10318;47.674;9.052;2022-09-29T12:04:42;1.38;;;0.90;;
20320;SDS011;10318;47.674;9.052;2022-09-29T12:07:16;1.30;;;1.00;;
20320;SDS011;10318;47.674;9.052;2022-09-29T12:12:22;1.15;;;0.85;;
20320;SDS011;10318;47.674;9.052;2022-09-29T12:15:07;1.35;;;0.90;;
20320;SDS011;10318;47.674;9.052;2022-09-29T12:17:39;2.17;;;0.90;;
20320;SDS011;10318;47.674;9.052;2022-09-29T12:20:16;1.60;;;0.88;;
20320;SDS011;10318;47.674;9.052;2022-09-29T12:22:44;0.93;;;0.73;;
20320;SDS011;10318;47.674;9.052;2022-09-29T12:25:16;5.05;;;0.80;;
20320;SDS011;10318;47.674;9.052;2022-09-29T12:27:43;1.08;;;0.85;;
20320;SDS011;10318;47.674;9.052;2022-09-29T12:32:43;1.20;;;0.85;;
20320;SDS011;10318;47.674;9.052;2022-09-29T12:35:27;1.00;;;0.90;;
20320;SDS011;10318;47.674;9.052;2022-09-29T12:40:37;1.77;;;0.85;;
20320;SDS011;10318;47.674;9.052;2022-09-29T12:45:36;1.45;;;1.00;;
20320;SDS011;10318;47.674;9.052;2022-09-29T12:48:14;1.05;;;0.80;;
20320;SDS011;10318;47.674;9.052;2022-09-29T12:53:26;1.63;;;0.90;;
20320;SDS011;10318;47.674;9.052;2022-09-29T12:58:23;3.08;;;0.88;;
20320;SDS011;10318;47.674;9.052;2022-09-29T13:00:53;2.47;;;0.95;;
20320;SDS011;10318;47.674;9.052;2022-09-29T13:03:35;1.48;;;0.93;;
20320;SDS011;10318;47.674;9.052;2022-09-29T13:11:45;1.38;;;0.90;;
20320;SDS011;10318;47.674;9.052;2022-09-29T13:32:29;0.85;;;0.50;;
20320;SDS011;10318;47.674;9.052;2022-09-29T13:34:56;0.98;;;0.57;;
20320;SDS011;10318;47.674;9.052;2022-09-29T13:37:24;1.50;;;0.68;;
20320;SDS011;10318;47.674;9.052;2022-09-29T13:39:54;0.93;;;0.60;;
20320;SDS011;10318;47.674;9.052;2022-09-29T13:42:41;1.48;;;0.70;;
20320;SDS011;10318;47.674;9.052;2022-09-29T13:47:57;0.65;;;0.50;;
20320;SDS011;10318;47.674;9.052;2022-09-29T13:50:46;2.05;;;0.77;;
20320;SDS011;10318;47.674;9.052;2022-09-29T13:58:22;3.33;;;0.90;;
20320;SDS011;10318;47.674;9.052;2022-09-29T14:00:50;1.13;;;0.50;;
20320;SDS011;10318;47.674;9.052;2022-09-29T14:03:21;2.10;;;0.80;;
20320;SDS011;10318;47.674;9.052;2022-09-29T14:05:53;1.45;;;1.00;;
20320;SDS011;10318;47.674;9.052;2022-09-29T14:08:21;1.02;;;0.73;;
20320;SDS011;10318;47.674;9.052;2022-09-29T14:11:01;1.20;;;0.77;;
20320;SDS011;10318;47.674;9.052;2022-09-29T14:13:43;0.50;;;0.50;;
20320;SDS011;10318;47.674;9.052;2022-09-29T14:18:57;2.75;;;0.63;;
20320;SDS011;10318;47.674;9.052;2022-09-29T14:29:44;7.13;;;0.88;;
20320;SDS011;10318;47.674;9.052;2022-09-29T14:32:14;0.50;;;0.40;;
20320;SDS011;10318;47.674;9.052;2022-09-29T14:34:43;3.15;;;0.90;;
20320;SDS011;10318;47.674;9.052;2022-09-29T14:37:16;0.80;;;0.70;;
20320;SDS011;10318;47.674;9.052;2022-09-29T14:39:45;1.55;;;0.70;;
20320;SDS011;10318;47.674;9.052;2022-09-29T14:42:32;0.98;;;0.63;;
20320;SDS011;10318;47.674;9.052;2022-09-29T14:44:59;2.50;;;0.65;;
20320;SDS011;10318;47.674;9.052;2022-09-29T14:47:49;2.13;;;0.60;;
20320;SDS011;10318;47.674;9.052;2022-09-29T14:50:43;1.23;;;0.90;;
20320;SDS011;10318;47.674;9.052;2022-09-29T14:53:38;3.35;;;0.88;;
20320;SDS011;10318;47.674;9.052;2022-09-29T15:03:55;1.25;;;0.90;;
20320;SDS011;10318;47.674;9.052;2022-09-29T15:06:26;3.42;;;0.70;;
20320;SDS011;10318;47.674;9.052;2022-09-29T15:08:58;1.92;;;0.93;;
20320;SDS011;10318;47.674;9.052;2022-09-29T15:13:55;1.75;;;0.80;;
20320;SDS011;10318;47.674;9.052;2022-09-29T15:27:18;2.63;;;1.02;;
20320;SDS011;10318;47.674;9.052;2022-09-29T15:29:46;2.15;;;1.10;;
20320;SDS011;10318;47.674;9.052;2022-09-29T15:32:21;5.60;;;1.35;;
20320;SDS011;10318;47.674;9.052;2022-09-29T15:34:49;1.20;;;1.00;;
20320;SDS011;10318;47.674;9.052;2022-09-29T15:37:21;3.85;;;1.20;;
20320;SDS011;10318;47.674;9.052;2022-09-29T15:39:49;1.40;;;1.00;;
20320;SDS011;10318;47.674;9.052;2022-09-29T15:42:18;2.22;;;1.02;;
20320;SDS011;10318;47.674;9.052;2022-09-29T15:44:53;2.28;;;1.00;;
20320;SDS011;10318;47.674;9.052;2022-09-29T15:49:53;1.85;;;1.30;;
20320;SDS011;10318;47.674;9.052;2022-09-29T15:52:20;1.38;;;1.25;;
20320;SDS011;10318;47.674;9.052;2022-09-29T15:54:52;4.28;;;1.70;;
20320;SDS011;10318;47.674;9.052;2022-09-29T16:05:22;1.38;;;1.10;;
20320;SDS011;10318;47.674;9.052;2022-09-29T16:07:51;1.00;;;0.90;;
20320;SDS011;10318;47.674;9.052;2022-09-29T16:10:26;2.35;;;1.00;;
20320;SDS011;10318;47.674;9.052;2022-09-29T16:12:57;1.75;;;1.08;;
20320;SDS011;10318;47.674;9.052;2022-09-29T16:17:52;1.40;;;1.10;;
20320;SDS011;10318;47.674;9.052;2022-09-29T16:20:22;3.55;;;1.00;;
20320;SDS011;10318;47.674;9.052;2022-09-29T16:22:50;0.82;;;0.82;;
20320;SDS011;10318;47.674;9.052;2022-09-29T16:25:25;2.08;;;0.90;;
20320;SDS011;10318;47.674;9.052;2022-09-29T16:27:56;1.98;;;0.98;;
20320;SDS011;10318;47.674;9.052;2022-09-29T16:30:25;1.73;;;0.90;;
20320;SDS011;10318;47.674;9.052;2022-09-29T16:33:11;1.08;;;0.90;;
20320;SDS011;10318;47.674;9.052;2022-09-29T16:38:48;1.83;;;1.10;;
20320;SDS011;10318;47.674;9.052;2022-09-29T16:41:06;1.63;;;1.10;;
20320;SDS011;10318;47.674;9.052;2022-09-29T16:43:33;1.40;;;0.98;;
20320;SDS011;10318;47.674;9.052;2022-09-29T16:46:01;0.98;;;0.90;;
20320;SDS011;10318;47.674;9.052;2022-09-29T16:48:29;2.47;;;1.10;;
20320;SDS011;10318;47.674;9.052;2022-09-29T16:51:00;3.20;;;1.10;;
20320;SDS011;10318;47.674;9.052;2022-09-29T16:53:33;1.42;;;1.10;;
20320;SDS011;10318;47.674;9.052;2022-09-29T16:56:02;2.22;;;1.33;;
20320;SDS011;10318;47.674;9.052;2022-09-29T16:58:29;2.03;;;1.45;;
20320;SDS011;10318;47.674;9.052;2022-09-29T17:00:57;1.50;;;1.38;;
20320;SDS011;10318;47.674;9.052;2022-09-29T17:03:23;2.00;;;1.42;;
20320;SDS011;10318;47.674;9.052;2022-09-29T17:05:50;2.92;;;1.83;;
20320;SDS011;10318;47.674;9.052;2022-09-29T17:08:21;1.75;;;1.40;;
20320;SDS011;10318;47.674;9.052;2022-09-29T17:10:51;3.95;;;1.40;;
20320;SDS011;10318;47.674;9.052;2022-09-29T17:13:18;2.25;;;1.52;;
20320;SDS011;10318;47.674;9.052;2022-09-29T17:15:46;2.55;;;1.67;;
20320;SDS011;10318;47.674;9.052;2022-09-29T17:18:15;1.50;;;1.27;;
20320;SDS011;10318;47.674;9.052;2022-09-29T17:20:42;1.95;;;1.20;;
20320;SDS011;10318;47.674;9.052;2022-09-29T17:23:09;1.83;;;1.25;;
20320;SDS011;10318;47.674;9.052;2022-09-29T17:25:37;4.18;;;1.50;;
20320;SDS011;10318;47.674;9.052;2022-09-29T17:28:18;1.10;;;1.00;;
20320;SDS011;10318;47.674;9.052;2022-09-29T17:30:45;1.40;;;1.10;;
20320;SDS011;10318;47.674;9.052;2022-09-29T17:33:13;7.32;;;1.52;;
20320;SDS011;10318;47.674;9.052;2022-09-29T17:35:44;2.17;;;1.20;;
20320;SDS011;10318;47.674;9.052;2022-09-29T17:38:17;0.80;;;0.80;;
20320;SDS011;10318;47.674;9.052;2022-09-29T17:40:51;1.48;;;1.15;;
20320;SDS011;10318;47.674;9.052;2022-09-29T17:43:19;0.98;;;0.90;;
20320;SDS011;10318;47.674;9.052;2022-09-29T17:45:46;1.92;;;0.70;;
20320;SDS011;10318;47.674;9.052;2022-09-29T17:48:13;1.95;;;1.15;;
20320;SDS011;10318;47.674;9.052;2022-09-29T17:50:47;0.98;;;0.80;;
20320;SDS011;10318;47.674;9.052;2022-09-29T17:53:14;1.20;;;1.10;;
20320;SDS011;10318;47.674;9.052;2022-09-29T17:55:42;1.58;;;0.90;;
20320;SDS011;10318;47.674;9.052;2022-09-29T17:58:10;1.30;;;0.90;;
20320;SDS011;10318;47.674;9.052;2022-09-29T18:00:38;2.40;;;1.20;;
20320;SDS011;10318;47.674;9.052;2022-09-29T18:03:06;1.25;;;1.00;;
20320;SDS011;10318;47.674;9.052;2022-09-29T18:05:35;3.83;;;1.15;;
20320;SDS011;10318;47.674;9.052;2022-09-29T18:08:04;4.20;;;1.02;;
20320;SDS011;10318;47.674;9.052;2022-09-29T18:13:07;2.97;;;1.00;;
20320;SDS011;10318;47.674;9.052;2022-09-29T18:15:34;1.30;;;0.88;;
20320;SDS011;10318;47.674;9.052;2022-09-29T18:18:02;1.63;;;1.08;;
20320;SDS011;10318;47.674;9.052;2022-09-29T18:20:29;2.42;;;1.17;;
20320;SDS011;10318;47.674;9.052;2022-09-29T18:22:56;1.00;;;0.90;;